Time;durP1;ratioP1;P1;durP2;ratioP2;P2;SDS_P1;SDS_P2;PMS_P1;PMS_P2;Temp;Humidity;BMP_temperature;BMP_pressure;BME280_temperature;BME280_humidity;BME280_pressure;Samples;Min_cycle;Max_cycle;Signal;HPM_P1;HPM_P2
2023/03/15 00:01:17;;;;;;;12.57;6.10;;;24.60;76.60;;;;;;4999122;28;20249;-70
2023/03/15 00:03:45;;;;;;;11.43;5.13;;;24.70;75.40;;;;;;4992518;28;20193;-73
2023/03/15 00:06:12;;;;;;;11.07;5.53;;;24.70;76.40;;;;;;4993000;28;20189;-71
2023/03/15 00:08:40;;;;;;;12.50;5.57;;;24.60;76.30;;;;;;4995079;28;20196;-72
2023/03/15 00:11:07;;;;;;;9.37;5.70;;;24.60;76.20;;;;;;4981975;28;20277;-71
2023/03/15 00:13:35;;;;;;;12.80;5.50;;;24.80;76.10;;;;;;5012033;28;20248;-70
2023/03/15 00:16:02;;;;;;;12.33;5.60;;;24.90;74.20;;;;;;5005177;28;20182;-71
2023/03/15 00:18:31;;;;;;;10.80;5.37;;;24.90;73.60;;;;;;4986201;28;20189;-71
2023/03/15 00:20:58;;;;;;;14.03;5.87;;;25.10;73.00;;;;;;4993563;28;20624;-71
2023/03/15 00:23:25;;;;;;;9.97;5.27;;;25.10;71.70;;;;;;4995906;28;20213;-71
2023/03/15 00:25:54;;;;;;;12.43;5.20;;;25.30;71.90;;;;;;4998118;28;20260;-69
2023/03/15 00:28:21;;;;;;;10.87;5.73;;;25.30;71.10;;;;;;4974656;28;20628;-69
2023/03/15 00:30:49;;;;;;;8.93;5.07;;;25.50;70.10;;;;;;4993657;28;20189;-68
2023/03/15 00:33:17;;;;;;;12.87;4.73;;;25.70;71.50;;;;;;4995019;28;20217;-70
2023/03/15 00:35:45;;;;;;;9.37;4.37;;;25.90;70.70;;;;;;4996107;28;20607;-71
2023/03/15 00:38:13;;;;;;;13.50;5.17;;;25.80;70.70;;;;;;5014967;28;20177;-71
2023/03/15 00:40:40;;;;;;;8.97;4.80;;;25.80;70.60;;;;;;5014270;28;20284;-70
2023/03/15 00:43:07;;;;;;;8.80;5.30;;;26.10;70.80;;;;;;5014227;28;20177;-74
2023/03/15 00:45:35;;;;;;;10.73;5.70;;;26.00;68.30;;;;;;5015088;28;20542;-71
2023/03/15 00:48:03;;;;;;;11.63;5.33;;;25.90;68.60;;;;;;5014939;28;20173;-71
2023/03/15 00:50:30;;;;;;;8.23;4.77;;;26.00;69.00;;;;;;5010662;28;20185;-70
2023/03/15 00:52:57;;;;;;;8.50;4.47;;;26.30;68.80;;;;;;4996713;28;20200;-69
2023/03/15 00:55:26;;;;;;;12.00;4.60;;;26.30;67.50;;;;;;5010488;28;20201;-72
2023/03/15 00:57:53;;;;;;;18.60;4.63;;;26.40;67.20;;;;;;5014708;28;20186;-70
2023/03/15 01:00:23;;;;;;;7.03;4.73;;;26.60;67.40;;;;;;5014218;28;20169;-74
2023/03/15 01:02:52;;;;;;;13.47;5.00;;;26.60;66.40;;;;;;5013764;28;20180;-74
2023/03/15 01:05:20;;;;;;;9.33;4.80;;;26.50;66.90;;;;;;5014627;28;20186;-72
2023/03/15 01:07:47;;;;;;;9.37;5.07;;;26.70;67.10;;;;;;5013856;28;20585;-66
2023/03/15 01:10:16;;;;;;;11.03;5.33;;;26.60;66.10;;;;;;5014554;28;20601;-69
2023/03/15 01:12:43;;;;;;;9.60;5.23;;;26.70;65.70;;;;;;5008287;28;20233;-66
2023/03/15 01:15:14;;;;;;;9.57;4.97;;;26.60;65.70;;;;;;5013660;28;20181;-66
2023/03/15 01:17:42;;;;;;;11.10;4.97;;;26.70;65.80;;;;;;5002373;28;20599;-67
2023/03/15 01:20:12;;;;;;;14.03;5.77;;;26.80;64.60;;;;;;4991140;28;20559;-64
2023/03/15 01:22:39;;;;;;;11.53;4.73;;;26.70;64.70;;;;;;4985356;28;20191;-66
2023/03/15 01:25:08;;;;;;;11.27;4.77;;;27.20;64.90;;;;;;4994728;28;20185;-67
2023/03/15 01:27:36;;;;;;;8.30;4.67;;;27.40;63.50;;;;;;4995669;28;20248;-67
2023/03/15 01:30:03;;;;;;;10.63;4.67;;;27.80;63.30;;;;;;4989381;28;20713;-70
2023/03/15 01:32:31;;;;;;;10.17;5.60;;;28.10;61.50;;;;;;4993188;28;20273;-67
2023/03/15 01:34:58;;;;;;;11.47;5.00;;;28.20;60.40;;;;;;4993524;28;20197;-76
2023/03/15 01:37:26;;;;;;;10.83;5.50;;;28.20;60.40;;;;;;4983979;28;20189;-67
2023/03/15 01:39:54;;;;;;;8.50;4.80;;;28.30;60.20;;;;;;4990170;28;20212;-69
2023/03/15 01:42:22;;;;;;;8.87;4.93;;;28.20;60.30;;;;;;4991607;28;20399;-69
2023/03/15 01:44:59;;;;;;;10.17;4.90;;;28.60;59.40;;;;;;4991911;28;20228;-72
2023/03/15 01:47:27;;;;;;;8.80;4.53;;;28.70;60.00;;;;;;4990485;28;20276;-69
2023/03/15 01:50:10;;;;;;;10.13;5.17;;;28.80;58.90;;;;;;4986135;28;20220;-69
2023/03/15 01:52:41;;;;;;;8.33;4.73;;;28.70;58.60;;;;;;4994376;28;20418;-69
2023/03/15 01:55:16;;;;;;;9.27;4.50;;;28.80;56.80;;;;;;4993938;28;20202;-70
2023/03/15 01:57:54;;;;;;;7.93;4.40;;;28.30;58.00;;;;;;4992516;28;20644;-66
2023/03/15 02:00:22;;;;;;;7.60;4.70;;;28.60;56.00;;;;;;4988370;28;20280;-68
2023/03/15 02:03:01;;;;;;;7.90;4.50;;;28.70;56.50;;;;;;4994085;28;20208;-68
2023/03/15 02:05:36;;;;;;;8.80;4.80;;;29.00;55.90;;;;;;4989796;28;20182;-66
2023/03/15 02:08:06;;;;;;;7.17;4.17;;;29.10;55.10;;;;;;4992964;28;20194;-65
2023/03/15 02:10:35;;;;;;;8.40;5.00;;;29.30;55.80;;;;;;4989990;28;20201;-66
2023/03/15 02:13:04;;;;;;;8.63;5.03;;;29.30;55.10;;;;;;4991647;28;20233;-71
2023/03/15 02:15:31;;;;;;;9.43;4.80;;;29.50;55.50;;;;;;4988209;28;20193;-71
2023/03/15 02:17:59;;;;;;;9.47;6.20;;;29.60;54.10;;;;;;4989929;28;20229;-66
2023/03/15 02:20:50;;;;;;;8.63;5.60;;;29.80;53.20;;;;;;4987740;28;20186;-68
2023/03/15 02:23:21;;;;;;;10.87;5.47;;;29.30;53.90;;;;;;4984834;28;20206;-67
2023/03/15 02:26:06;;;;;;;8.50;5.17;;;29.50;54.50;;;;;;4991418;28;20213;-71
2023/03/15 02:28:34;;;;;;;10.03;5.07;;;29.80;54.40;;;;;;4984226;28;20195;-71
2023/03/15 02:31:02;;;;;;;6.67;4.50;;;30.20;52.20;;;;;;4990221;28;20603;-70
2023/03/15 02:33:40;;;;;;;6.65;4.78;;;30.30;50.80;;;;;;4991929;28;20182;-72
2023/03/15 02:36:33;;;;;;;5.57;4.13;;;30.70;48.90;;;;;;4990022;28;20220;-66
2023/03/15 02:39:11;;;;;;;5.60;4.30;;;30.70;47.40;;;;;;4981046;28;20201;-66
2023/03/15 02:41:41;;;;;;;11.90;5.07;;;30.40;48.50;;;;;;4980676;28;20222;-72
2023/03/15 02:44:26;;;;;;;8.53;5.13;;;30.40;49.10;;;;;;4985239;28;20190;-70
2023/03/15 02:46:57;;;;;;;9.70;5.05;;;30.80;48.70;;;;;;4988737;28;20684;-68
2023/03/15 02:49:30;;;;;;;8.68;4.90;;;31.10;48.30;;;;;;4987055;28;20174;-71
2023/03/15 02:51:58;;;;;;;8.75;5.15;;;31.50;46.60;;;;;;4990992;28;20213;-70
2023/03/15 02:54:25;;;;;;;6.85;4.68;;;31.50;46.00;;;;;;4988705;28;20196;-70
2023/03/15 02:56:52;;;;;;;5.13;4.25;;;31.90;45.30;;;;;;4989354;28;20253;-72
2023/03/15 02:59:20;;;;;;;14.48;4.72;;;32.10;45.60;;;;;;4990116;28;20182;-73
2023/03/15 03:01:48;;;;;;;10.23;4.30;;;31.90;48.20;;;;;;4986358;28;20215;-67
2023/03/15 03:04:15;;;;;;;11.05;4.85;;;31.40;51.60;;;;;;4980229;28;20193;-67
2023/03/15 03:06:42;;;;;;;17.55;5.25;;;30.90;53.90;;;;;;4971111;28;20182;-67
2023/03/15 03:09:11;;;;;;;14.85;5.20;;;30.40;55.10;;;;;;4991508;28;20559;-75
2023/03/15 03:11:38;;;;;;;9.63;4.63;;;29.80;56.90;;;;;;4987387;28;20667;-70
2023/03/15 03:14:05;;;;;;;11.93;5.30;;;29.30;58.00;;;;;;4993351;28;20279;-72
2023/03/15 03:16:33;;;;;;;13.77;5.37;;;29.30;58.40;;;;;;4995370;28;20194;-72
2023/03/15 03:19:00;;;;;;;10.95;5.03;;;29.90;55.50;;;;;;5003354;28;20184;-73
2023/03/15 03:21:27;;;;;;;12.90;4.87;;;30.00;56.60;;;;;;4991993;28;20197;-70
2023/03/15 03:23:55;;;;;;;11.98;5.13;;;30.30;56.20;;;;;;5000541;28;20690;-70
2023/03/15 03:26:26;;;;;;;13.45;5.13;;;30.80;55.50;;;;;;4995072;28;20241;-68
2023/03/15 03:28:55;;;;;;;11.55;4.80;;;30.90;54.30;;;;;;4991657;28;20190;-69
2023/03/15 03:31:24;;;;;;;10.95;5.07;;;30.80;54.30;;;;;;4993609;28;20577;-68
2023/03/15 03:33:52;;;;;;;19.13;5.72;;;30.90;54.30;;;;;;4995399;28;20269;-67
2023/03/15 03:36:20;;;;;;;18.33;5.13;;;30.10;56.30;;;;;;4999778;28;20193;-69
2023/03/15 03:38:47;;;;;;;15.30;4.72;;;30.30;57.70;;;;;;4992172;28;20266;-72
2023/03/15 03:41:15;;;;;;;15.93;5.13;;;30.60;57.00;;;;;;4994227;28;20225;-66
2023/03/15 03:43:42;;;;;;;12.13;4.70;;;30.70;57.00;;;;;;4994485;28;20193;-69
2023/03/15 03:46:10;;;;;;;14.23;4.38;;;31.10;56.00;;;;;;4995786;28;20711;-68
2023/03/15 03:48:37;;;;;;;12.52;4.90;;;30.90;56.70;;;;;;4997841;28;20190;-69
2023/03/15 03:51:05;;;;;;;13.98;4.40;;;30.80;57.00;;;;;;4989940;28;20276;-66
2023/03/15 03:53:32;;;;;;;15.50;5.38;;;30.90;56.20;;;;;;4987509;28;20213;-71
2023/03/15 03:56:02;;;;;;;12.32;4.78;;;31.30;56.50;;;;;;4991865;28;20704;-67
2023/03/15 03:58:30;;;;;;;11.07;4.45;;;31.30;53.80;;;;;;4991298;28;20241;-67
2023/03/15 04:00:57;;;;;;;9.25;4.72;;;30.60;55.70;;;;;;4995223;28;20214;-67
2023/03/15 04:03:26;;;;;;;11.43;5.55;;;31.10;55.10;;;;;;4994922;28;20189;-67
2023/03/15 04:05:55;;;;;;;11.55;4.88;;;31.20;54.50;;;;;;5001690;28;20225;-67
2023/03/15 04:08:24;;;;;;;12.15;5.47;;;31.30;53.90;;;;;;4993698;28;20257;-74
2023/03/15 04:10:56;;;;;;;14.02;5.70;;;31.80;53.10;;;;;;4999626;28;20181;-73
2023/03/15 04:13:25;;;;;;;9.20;4.80;;;31.50;52.80;;;;;;4991611;28;20221;-72
2023/03/15 04:15:56;;;;;;;11.98;4.93;;;31.80;52.40;;;;;;4995760;28;20268;-75
2023/03/15 04:18:24;;;;;;;10.55;4.80;;;31.90;51.90;;;;;;4995057;28;20184;-77
2023/03/15 04:20:53;;;;;;;13.20;5.30;;;32.20;50.80;;;;;;4995236;28;20317;-75
2023/03/15 04:23:22;;;;;;;12.45;5.10;;;31.60;51.90;;;;;;4993521;28;20198;-68
2023/03/15 04:25:51;;;;;;;12.35;5.45;;;30.90;53.80;;;;;;4991164;28;20740;-75
2023/03/15 04:28:18;;;;;;;12.73;5.13;;;30.40;55.10;;;;;;4989991;28;20681;-69
2023/03/15 04:30:48;;;;;;;12.25;5.43;;;30.10;56.60;;;;;;4993750;28;20182;-70
2023/03/15 04:33:16;;;;;;;9.90;4.85;;;30.20;56.20;;;;;;4992862;28;20832;-66
2023/03/15 04:35:43;;;;;;;12.13;6.03;;;30.70;55.00;;;;;;4994607;28;20182;-67
2023/03/15 04:38:11;;;;;;;13.82;5.75;;;30.60;55.50;;;;;;4994445;28;20272;-77
2023/03/15 04:40:38;;;;;;;12.65;5.80;;;30.60;55.30;;;;;;4995482;28;20210;-74
2023/03/15 04:43:06;;;;;;;15.43;5.47;;;30.70;55.30;;;;;;4994897;28;20186;-78
2023/03/15 04:45:33;;;;;;;14.20;6.18;;;31.10;55.00;;;;;;4994801;28;20190;-75
2023/03/15 04:48:02;;;;;;;13.30;5.60;;;30.70;55.40;;;;;;4995195;28;20585;-76
2023/03/15 04:50:30;;;;;;;8.43;5.30;;;30.80;55.00;;;;;;4991666;28;20210;-76
2023/03/15 04:53:00;;;;;;;12.50;5.72;;;30.00;56.70;;;;;;4989911;28;20539;-75
2023/03/15 04:55:27;;;;;;;10.93;5.53;;;30.00;57.60;;;;;;4994550;28;20177;-75
2023/03/15 04:57:55;;;;;;;12.40;5.82;;;30.80;55.40;;;;;;4994465;28;20560;-76
2023/03/15 05:00:22;;;;;;;10.65;5.10;;;31.30;54.90;;;;;;4994709;28;20328;-74
2023/03/15 05:02:53;;;;;;;9.55;5.18;;;31.70;53.40;;;;;;4995516;28;20186;-76
2023/03/15 05:05:22;;;;;;;9.90;5.50;;;31.80;53.20;;;;;;4994429;28;20668;-75
2023/03/15 05:07:50;;;;;;;13.45;5.53;;;31.90;53.60;;;;;;4994431;28;20182;-74
2023/03/15 05:10:18;;;;;;;12.82;5.50;;;32.10;52.90;;;;;;4995010;28;20209;-74
2023/03/15 05:12:45;;;;;;;15.65;5.93;;;32.00;53.30;;;;;;4994348;28;20236;-73
2023/03/15 05:15:13;;;;;;;12.05;5.57;;;31.80;53.10;;;;;;4994916;28;20205;-74
2023/03/15 05:17:40;;;;;;;11.70;5.10;;;32.30;52.90;;;;;;4987367;28;20265;-74
2023/03/15 05:20:11;;;;;;;11.57;5.15;;;31.90;52.40;;;;;;4994108;28;20229;-69
2023/03/15 05:22:42;;;;;;;14.02;5.32;;;32.30;52.30;;;;;;4987536;28;20197;-73
2023/03/15 05:25:10;;;;;;;10.90;5.43;;;32.00;52.60;;;;;;4989008;28;20660;-72
2023/03/15 05:27:38;;;;;;;13.13;5.68;;;31.20;53.80;;;;;;4993423;28;20182;-75
2023/03/15 05:30:06;;;;;;;11.38;5.32;;;31.30;54.10;;;;;;4993267;28;20201;-76
2023/03/15 05:32:34;;;;;;;14.57;5.72;;;31.40;53.90;;;;;;4992075;28;20177;-80
2023/03/15 05:35:03;;;;;;;15.63;6.28;;;31.90;52.10;;;;;;4993008;28;20208;-74
2023/03/15 05:37:31;;;;;;;9.32;5.45;;;31.40;54.00;;;;;;4994054;28;20210;-69
2023/03/15 05:40:00;;;;;;;12.13;5.70;;;31.80;52.10;;;;;;4994329;28;20225;-71
2023/03/15 05:42:28;;;;;;;9.90;5.30;;;31.10;53.90;;;;;;4993772;28;20717;-75
2023/03/15 05:44:56;;;;;;;11.48;6.15;;;31.20;54.10;;;;;;4993152;28;20229;-75
2023/03/15 05:47:24;;;;;;;12.13;6.00;;;31.10;53.90;;;;;;4994343;28;20232;-74
2023/03/15 05:49:52;;;;;;;11.23;5.32;;;31.40;53.30;;;;;;4993254;28;20652;-67
2023/03/15 05:52:19;;;;;;;10.20;5.90;;;31.80;52.20;;;;;;4993991;28;20197;-75
2023/03/15 05:54:46;;;;;;;13.50;5.65;;;31.30;53.20;;;;;;4993136;28;20248;-76
2023/03/15 05:57:14;;;;;;;11.85;6.07;;;31.50;52.10;;;;;;4993775;28;20232;-74
2023/03/15 05:59:41;;;;;;;12.07;6.13;;;31.30;53.00;;;;;;4992864;28;20241;-69
2023/03/15 06:02:08;;;;;;;9.82;6.43;;;31.30;53.20;;;;;;4985038;28;20249;-74
2023/03/15 06:04:36;;;;;;;11.38;5.80;;;32.20;50.20;;;;;;4990829;28;20257;-67
2023/03/15 06:07:04;;;;;;;11.75;6.60;;;32.20;51.30;;;;;;4992512;28;20272;-74
2023/03/15 06:09:31;;;;;;;13.35;6.20;;;31.80;51.30;;;;;;4992632;28;20668;-69
2023/03/15 06:11:59;;;;;;;13.65;6.80;;;31.70;52.30;;;;;;4991136;28;20651;-66
2023/03/15 06:14:27;;;;;;;14.10;7.10;;;32.00;51.00;;;;;;4992509;28;20249;-67
2023/03/15 06:16:54;;;;;;;10.23;5.80;;;32.20;50.70;;;;;;4993187;28;20190;-67
2023/03/15 06:19:23;;;;;;;15.18;6.43;;;31.50;52.30;;;;;;4989591;28;20224;-67
2023/03/15 06:21:51;;;;;;;13.45;6.60;;;31.40;52.90;;;;;;4989308;28;20273;-67
2023/03/15 06:24:18;;;;;;;10.82;6.53;;;31.50;52.40;;;;;;4988713;28;20179;-67
2023/03/15 06:26:45;;;;;;;12.98;6.43;;;31.80;51.90;;;;;;4988476;28;20186;-66
2023/03/15 06:29:13;;;;;;;14.18;6.57;;;32.00;51.70;;;;;;4988927;28;20205;-66
2023/03/15 06:31:40;;;;;;;14.07;5.95;;;31.60;52.00;;;;;;4991729;28;20264;-66
2023/03/15 06:34:07;;;;;;;11.20;6.63;;;31.30;53.80;;;;;;4992230;28;20178;-68
2023/03/15 06:36:35;;;;;;;11.55;6.28;;;31.80;52.10;;;;;;4968573;28;20578;-67
2023/03/15 06:39:04;;;;;;;11.52;5.97;;;31.30;52.70;;;;;;4992678;28;20182;-66
2023/03/15 06:41:31;;;;;;;11.35;6.57;;;30.50;55.30;;;;;;4992161;28;20205;-66
2023/03/15 06:43:59;;;;;;;14.15;6.90;;;30.60;55.40;;;;;;4990690;28;20182;-66
2023/03/15 06:46:26;;;;;;;13.63;6.40;;;30.60;54.90;;;;;;4990472;28;20189;-67
2023/03/15 06:48:53;;;;;;;13.35;6.55;;;31.00;54.30;;;;;;5010177;28;20189;-66
2023/03/15 06:51:21;;;;;;;9.63;6.30;;;30.30;55.40;;;;;;4999132;28;20189;-66
2023/03/15 06:53:48;;;;;;;13.68;7.00;;;30.80;54.90;;;;;;4993227;28;20193;-67
2023/03/15 06:56:15;;;;;;;11.85;5.82;;;30.80;54.00;;;;;;4995845;28;20178;-68
2023/03/15 06:58:43;;;;;;;10.05;6.32;;;30.70;54.20;;;;;;4998135;28;20282;-69
2023/03/15 07:01:16;;;;;;;10.98;6.57;;;30.60;54.20;;;;;;4988178;28;20750;-67
2023/03/15 07:03:43;;;;;;;14.85;6.95;;;31.00;54.10;;;;;;4995707;28;20662;-66
2023/03/15 07:06:10;;;;;;;12.30;6.07;;;30.80;54.10;;;;;;5012897;28;20636;-66
2023/03/15 07:08:38;;;;;;;12.40;7.88;;;30.30;55.60;;;;;;5010978;28;20192;-66
2023/03/15 07:11:05;;;;;;;10.93;6.53;;;30.30;55.80;;;;;;4999313;28;20181;-65
2023/03/15 07:13:32;;;;;;;12.63;7.10;;;30.00;56.50;;;;;;5001495;28;20222;-66
2023/03/15 07:16:00;;;;;;;13.93;7.32;;;29.70;57.10;;;;;;5009149;28;20181;-71
2023/03/15 07:18:28;;;;;;;13.15;6.68;;;29.30;58.30;;;;;;5012676;28;20566;-68
2023/03/15 07:21:06;;;;;;;10.90;6.25;;;29.60;57.80;;;;;;5002646;28;20205;-66
2023/03/15 07:23:34;;;;;;;14.15;5.90;;;29.70;57.40;;;;;;4981165;28;20202;-66
2023/03/15 07:26:01;;;;;;;10.90;6.15;;;29.90;56.90;;;;;;4994355;28;20248;-67
2023/03/15 07:28:29;;;;;;;10.32;6.05;;;30.60;54.00;;;;;;4995785;28;20224;-66
2023/03/15 07:31:02;;;;;;;10.52;6.03;;;30.70;54.00;;;;;;5011826;28;20656;-68
2023/03/15 07:33:32;;;;;;;12.93;6.43;;;30.30;54.90;;;;;;4995554;28;20503;-66
2023/03/15 07:36:02;;;;;;;12.77;6.90;;;29.80;57.00;;;;;;4989930;28;20196;-67
2023/03/15 07:38:30;;;;;;;9.90;5.83;;;29.80;56.30;;;;;;5007256;28;20181;-67
2023/03/15 07:41:00;;;;;;;10.98;6.10;;;29.40;57.20;;;;;;5012452;28;20255;-68
2023/03/15 07:43:28;;;;;;;12.47;5.40;;;28.70;59.40;;;;;;4994227;28;20189;-69
2023/03/15 07:45:55;;;;;;;10.83;6.73;;;28.00;61.30;;;;;;5002293;28;20186;-68
2023/03/15 07:48:22;;;;;;;12.23;6.37;;;27.70;62.40;;;;;;4996400;28;20177;-65
2023/03/15 07:50:50;;;;;;;12.30;7.30;;;27.30;63.90;;;;;;4990717;28;20190;-67
2023/03/15 07:53:17;;;;;;;13.13;7.07;;;26.90;64.60;;;;;;5000747;28;20648;-67
2023/03/15 07:55:47;;;;;;;12.00;7.20;;;26.70;66.00;;;;;;5006852;28;20194;-66
2023/03/15 07:58:15;;;;;;;15.93;6.57;;;26.40;67.40;;;;;;5004016;28;20631;-66
2023/03/15 08:00:42;;;;;;;18.53;8.63;;;26.20;67.50;;;;;;5003336;28;20585;-65
2023/03/15 08:03:10;;;;;;;11.70;7.47;;;26.00;68.60;;;;;;4993454;28;20189;-65
2023/03/15 08:05:37;;;;;;;16.37;8.20;;;25.90;69.00;;;;;;5003619;28;20648;-67
2023/03/15 08:08:05;;;;;;;14.87;7.57;;;25.90;68.70;;;;;;4999317;28;20292;-66
2023/03/15 08:10:32;;;;;;;10.87;7.60;;;25.80;69.60;;;;;;5002016;28;20185;-67
2023/03/15 08:12:59;;;;;;;13.07;6.73;;;25.80;69.20;;;;;;5006565;28;20279;-64
2023/03/15 08:15:27;;;;;;;13.70;7.40;;;25.60;69.50;;;;;;4987504;28;20711;-65
2023/03/15 08:17:54;;;;;;;12.30;7.13;;;25.50;70.60;;;;;;4992442;28;20280;-65
2023/03/15 08:20:21;;;;;;;13.10;7.37;;;25.30;71.40;;;;;;4994800;28;20186;-64
2023/03/15 08:22:50;;;;;;;11.77;7.23;;;25.30;72.00;;;;;;5012996;28;20209;-65
2023/03/15 08:25:20;;;;;;;12.70;7.23;;;25.30;71.60;;;;;;4996595;28;20695;-65
2023/03/15 08:27:49;;;;;;;16.90;7.60;;;25.30;71.70;;;;;;4999341;28;20184;-66
2023/03/15 08:30:18;;;;;;;12.53;7.40;;;25.30;72.50;;;;;;5008619;28;20285;-68
2023/03/15 08:32:47;;;;;;;12.27;7.30;;;25.30;72.30;;;;;;4988758;28;20232;-65
2023/03/15 08:35:16;;;;;;;17.63;7.93;;;25.20;72.80;;;;;;4995209;28;20248;-66
2023/03/15 08:37:47;;;;;;;13.47;7.67;;;25.20;72.80;;;;;;5012760;28;20182;-70
2023/03/15 08:40:25;;;;;;;12.90;7.13;;;25.20;72.20;;;;;;5012662;28;20185;-68
2023/03/15 08:42:53;;;;;;;14.97;7.33;;;25.20;72.20;;;;;;5007421;28;20302;-69
2023/03/15 08:45:23;;;;;;;15.43;7.63;;;25.20;72.40;;;;;;5003069;28;20593;-65
2023/03/15 08:47:57;;;;;;;17.77;8.37;;;25.00;72.10;;;;;;4992190;28;20189;-65
2023/03/15 08:50:25;;;;;;;13.00;7.40;;;25.00;72.40;;;;;;4995466;28;20182;-66
2023/03/15 08:52:52;;;;;;;17.87;8.50;;;24.90;72.50;;;;;;4994445;28;20182;-65
2023/03/15 08:55:20;;;;;;;16.40;8.17;;;24.80;72.90;;;;;;5013757;28;20543;-71
2023/03/15 08:57:48;;;;;;;15.60;8.00;;;24.70;73.40;;;;;;5013699;28;20185;-65
2023/03/15 09:00:25;;;;;;;15.73;7.40;;;24.80;74.00;;;;;;4993912;28;20192;-70
2023/03/15 09:02:54;;;;;;;16.43;7.83;;;24.70;73.80;;;;;;4991869;28;20190;-65
2023/03/15 09:05:22;;;;;;;12.97;7.07;;;24.70;73.90;;;;;;4993027;28;20586;-66
2023/03/15 09:07:51;;;;;;;13.50;7.20;;;24.70;74.00;;;;;;4991654;28;20660;-66
2023/03/15 09:10:20;;;;;;;16.13;8.47;;;24.60;74.20;;;;;;4994484;28;20194;-65
2023/03/15 09:12:52;;;;;;;15.97;8.80;;;24.60;74.20;;;;;;4993549;28;20253;-65
2023/03/15 09:15:20;;;;;;;16.40;8.07;;;24.50;74.60;;;;;;4994614;28;20581;-71
2023/03/15 09:17:52;;;;;;;15.13;7.70;;;24.40;75.20;;;;;;4994215;28;20181;-74
2023/03/15 09:20:21;;;;;;;18.53;8.83;;;24.40;75.30;;;;;;4994025;28;20189;-77
2023/03/15 09:22:54;;;;;;;18.27;8.20;;;24.30;75.30;;;;;;4993464;28;20469;-76
2023/03/15 09:25:23;;;;;;;14.47;8.30;;;24.40;75.40;;;;;;4994281;28;20224;-75
2023/03/15 09:27:50;;;;;;;17.57;7.90;;;24.30;75.70;;;;;;4993845;28;20193;-75
2023/03/15 09:30:18;;;;;;;16.50;8.00;;;24.20;75.80;;;;;;4992688;28;20182;-74
2023/03/15 09:32:45;;;;;;;16.57;8.00;;;24.20;75.90;;;;;;4993605;28;20210;-70
2023/03/15 09:35:19;;;;;;;13.30;7.97;;;24.20;76.00;;;;;;4995386;28;20585;-73
2023/03/15 09:37:47;;;;;;;12.47;7.33;;;24.20;75.90;;;;;;4992830;28;20205;-72
2023/03/15 09:40:38;;;;;;;12.67;7.40;;;24.10;75.80;;;;;;4992868;28;20192;-77
2023/03/15 09:43:10;;;;;;;13.60;7.33;;;23.90;75.80;;;;;;4992253;28;20221;-76
2023/03/15 09:46:02;;;;;;;14.23;8.60;;;23.90;76.10;;;;;;4989056;28;20644;-72
2023/03/15 09:48:38;;;;;;;14.67;8.23;;;23.90;76.30;;;;;;4992454;28;20182;-72
2023/03/15 09:51:08;;;;;;;15.37;7.97;;;24.00;76.70;;;;;;4992363;28;20181;-74
2023/03/15 09:53:46;;;;;;;19.07;7.50;;;23.90;76.50;;;;;;4992011;28;20186;-77
2023/03/15 09:56:35;;;;;;;12.03;7.83;;;23.90;76.50;;;;;;4994270;28;20212;-77
2023/03/15 09:59:03;;;;;;;14.27;7.70;;;23.80;76.50;;;;;;4991474;28;20178;-75
2023/03/15 10:01:38;;;;;;;14.23;8.33;;;23.80;76.70;;;;;;4992680;28;20201;-75
2023/03/15 10:04:27;;;;;;;15.33;7.73;;;23.80;77.20;;;;;;4986239;28;20197;-74
2023/03/15 10:06:58;;;;;;;12.70;8.23;;;23.80;77.50;;;;;;4992175;28;20641;-66
2023/03/15 10:09:31;;;;;;;15.40;8.47;;;23.80;77.70;;;;;;4993047;28;20193;-65
2023/03/15 10:11:59;;;;;;;16.20;7.70;;;23.70;78.00;;;;;;4989984;28;20193;-65
2023/03/15 10:14:36;;;;;;;13.70;8.27;;;23.70;77.90;;;;;;4975024;28;20300;-65
2023/03/15 10:17:12;;;;;;;16.13;7.83;;;23.60;78.00;;;;;;4992605;28;20186;-70
2023/03/15 10:19:52;;;;;;;18.43;8.30;;;23.60;78.20;;;;;;4992035;28;20181;-67
2023/03/15 10:22:50;;;;;;;16.07;8.97;;;23.60;78.30;;;;;;4993445;28;20700;-68
2023/03/15 10:25:26;;;;;;;12.70;6.80;;;23.60;78.60;;;;;;4992155;28;20198;-65
2023/03/15 10:27:57;;;;;;;20.60;9.50;;;23.60;78.60;;;;;;4980432;28;20185;-69
2023/03/15 10:30:36;;;;;;;17.30;8.77;;;23.50;78.80;;;;;;4990568;28;20268;-71
2023/03/15 10:33:33;;;;;;;20.17;9.40;;;23.40;79.50;;;;;;4993304;28;20182;-65
2023/03/15 10:36:03;;;;;;;19.87;8.97;;;23.30;79.60;;;;;;4980664;28;20622;-66
2023/03/15 10:38:30;;;;;;;16.43;8.27;;;23.30;79.70;;;;;;4992815;28;20640;-66
2023/03/15 10:40:59;;;;;;;14.90;8.60;;;23.30;80.00;;;;;;4993613;28;20201;-67
2023/03/15 10:43:30;;;;;;;15.73;8.37;;;23.30;80.00;;;;;;4992330;28;20193;-69
2023/03/15 10:46:00;;;;;;;15.43;8.83;;;23.30;80.20;;;;;;4993608;28;20182;-67
2023/03/15 10:48:30;;;;;;;16.47;9.27;;;23.30;80.20;;;;;;4993294;28;20182;-67
2023/03/15 10:51:03;;;;;;;18.50;9.67;;;23.30;80.70;;;;;;4990090;28;20182;-69
2023/03/15 10:53:30;;;;;;;23.00;10.47;;;23.20;80.60;;;;;;4991382;28;20194;-66
2023/03/15 10:56:05;;;;;;;20.33;8.90;;;23.20;81.00;;;;;;4991656;28;20613;-66
2023/03/15 10:58:46;;;;;;;22.03;9.80;;;23.20;81.40;;;;;;4992925;28;20177;-70
2023/03/15 11:01:26;;;;;;;17.83;9.23;;;23.20;81.30;;;;;;4992621;28;20233;-67
2023/03/15 11:04:17;;;;;;;19.60;8.97;;;23.00;81.30;;;;;;4989577;28;20604;-66
2023/03/15 11:06:47;;;;;;;22.47;10.57;;;23.00;81.40;;;;;;4989778;28;20178;-67
2023/03/15 11:09:26;;;;;;;17.30;10.13;;;23.00;81.40;;;;;;4988552;28;20186;-67
2023/03/15 11:12:06;;;;;;;19.40;10.00;;;23.00;81.50;;;;;;4975626;28;20523;-65
2023/03/15 11:14:40;;;;;;;16.47;9.07;;;23.00;81.60;;;;;;4991572;28;20222;-66
2023/03/15 11:17:15;;;;;;;19.53;10.43;;;22.90;81.90;;;;;;4991170;28;20198;-71
2023/03/15 11:19:58;;;;;;;22.53;10.77;;;22.90;81.70;;;;;;4990388;28;20192;-70
2023/03/15 11:22:26;;;;;;;20.17;10.33;;;22.90;81.80;;;;;;4993061;28;20264;-67
2023/03/15 11:24:54;;;;;;;17.27;10.13;;;22.90;81.90;;;;;;4992845;28;20217;-69
2023/03/15 11:27:24;;;;;;;21.50;9.40;;;22.90;82.00;;;;;;4991626;28;20181;-68
2023/03/15 11:29:57;;;;;;;22.93;10.50;;;22.90;82.10;;;;;;4984667;28;20177;-66
2023/03/15 11:32:27;;;;;;;23.17;9.77;;;22.90;82.30;;;;;;4992442;28;20312;-67
2023/03/15 11:35:11;;;;;;;25.47;10.50;;;22.90;82.60;;;;;;4992701;28;20546;-66
2023/03/15 11:38:08;;;;;;;20.80;10.23;;;22.80;82.60;;;;;;4996240;28;20579;-65
2023/03/15 11:40:46;;;;;;;20.70;10.33;;;22.80;82.80;;;;;;4996472;28;20320;-66
2023/03/15 11:43:28;;;;;;;21.47;10.73;;;22.70;82.80;;;;;;4990627;28;20221;-66
2023/03/15 11:46:01;;;;;;;19.70;9.80;;;22.70;83.30;;;;;;4996728;28;20170;-68
2023/03/15 11:48:31;;;;;;;21.37;10.60;;;22.80;83.40;;;;;;4996744;28;20181;-66
2023/03/15 11:51:00;;;;;;;20.83;10.93;;;22.70;83.40;;;;;;4996224;28;20193;-66
2023/03/15 11:53:35;;;;;;;19.50;10.00;;;22.70;83.70;;;;;;4996125;28;20193;-71
2023/03/15 11:56:27;;;;;;;26.10;10.87;;;22.70;83.90;;;;;;4996180;28;20282;-72
2023/03/15 11:59:15;;;;;;;19.40;10.17;;;22.60;84.00;;;;;;4996977;28;20170;-72
2023/03/15 12:02:01;;;;;;;19.77;9.93;;;22.60;84.10;;;;;;5010236;28;20609;-66
2023/03/15 12:04:34;;;;;;;23.53;10.13;;;22.50;84.30;;;;;;5001499;28;20663;-72
2023/03/15 12:07:27;;;;;;;20.90;9.80;;;22.50;84.50;;;;;;5012341;28;20177;-71
2023/03/15 12:10:30;;;;;;;22.20;10.73;;;22.50;84.80;;;;;;4995410;28;20280;-75
2023/03/15 12:13:06;;;;;;;17.70;10.23;;;22.50;85.00;;;;;;5013824;28;20223;-74
2023/03/15 12:15:40;;;;;;;20.93;10.43;;;22.40;84.70;;;;;;4995236;28;20193;-73
2023/03/15 12:18:16;;;;;;;26.43;10.87;;;22.40;85.10;;;;;;4996041;28;20611;-66
2023/03/15 12:20:51;;;;;;;22.80;11.40;;;22.30;85.40;;;;;;4995652;28;20539;-68
2023/03/15 12:23:18;;;;;;;21.47;10.30;;;22.30;85.40;;;;;;4996068;28;20177;-75
2023/03/15 12:25:55;;;;;;;17.60;9.80;;;22.30;85.90;;;;;;4994688;28;20194;-74
2023/03/15 12:28:44;;;;;;;19.30;10.73;;;22.30;86.10;;;;;;4995976;28;20588;-75
2023/03/15 12:31:13;;;;;;;19.43;10.53;;;22.30;86.00;;;;;;4996006;28;20185;-75
2023/03/15 12:33:57;;;;;;;21.10;10.40;;;22.30;86.20;;;;;;4993560;28;20628;-75
2023/03/15 12:36:45;;;;;;;20.70;11.33;;;22.10;86.10;;;;;;4995575;28;20200;-75
2023/03/15 12:39:18;;;;;;;23.73;10.50;;;22.10;86.50;;;;;;4995834;28;20711;-69
2023/03/15 12:41:50;;;;;;;17.93;10.97;;;22.00;86.50;;;;;;4995181;28;20210;-66
2023/03/15 12:44:25;;;;;;;24.07;10.97;;;22.00;86.50;;;;;;4991240;28;20217;-70
2023/03/15 12:46:53;;;;;;;23.17;11.23;;;22.00;86.80;;;;;;4995545;28;20173;-67
2023/03/15 12:49:23;;;;;;;23.27;11.30;;;22.00;86.90;;;;;;4992932;28;20193;-67
2023/03/15 12:52:15;;;;;;;23.03;11.27;;;22.00;87.10;;;;;;4993514;28;20269;-67
2023/03/15 12:55:14;;;;;;;21.33;11.23;;;22.00;87.30;;;;;;4994467;28;20241;-70
2023/03/15 12:57:53;;;;;;;22.90;11.13;;;22.00;87.20;;;;;;4976051;28;20221;-71